Zion National Park, Utah
Current Conditions -  °F | °C
As of 3:15 PM on Saturday 25 Oct 2014 (Local Time) from KAZC Reporting Station
Overcast Overcast  
Wind Chill: 78°   Ceiling: 8000
Heat Index: 78°   Visibility: 10mi
Dew Point: 40°   Wind: 9mph
Humidity: 26%   Direction: 220°SW
Pressure: 30.17"   Gusts: NA
Location:  37.1888°N, 113°W
Report Text: KAZC 252115Z AUTO 22008KT 10SM OVC080 26/05 A3017 RMK AO2 T02550045
Loading
Personal Weather Stations






























Interactive Weather Map
Tropical Storm Tracking
New forecast layout! Learn more

10-Day Weather Forecast

Advertisements
Track Severe Weather on mobile